Time;durP1;ratioP1;P1;durP2;ratioP2;P2;SDS_P1;SDS_P2;PMS_P1;PMS_P2;Temp;Humidity;BMP_temperature;BMP_pressure;BME280_temperature;BME280_humidity;BME280_pressure;Samples;Min_cycle;Max_cycle;Signal;HPM_P1;HPM_P2
2023/02/18 00:02:30;;;;;;;3.8;1.9;;;;;;;8.01;76.8916;946.4519;;;;
2023/02/18 00:04:55;;;;;;;2.3;1.7;;;;;;;8;77.27637;946.2547;;;;
2023/02/18 00:07:20;;;;;;;2.5;1.3;;;;;;;8.07;76.99219;946.3524;;;;
2023/02/18 00:09:45;;;;;;;2;1.4;;;;;;;8.13;76.61816;946.2464;;;;
2023/02/18 00:12:31;;;;;;;1.8;1.3;;;;;;;8.07;76.61816;946.0516;;;;
2023/02/18 00:14:51;;;;;;;1.3;1.1;;;;;;;8.11;76.95508;946.1735;;;;
2023/02/18 00:17:16;;;;;;;2.5;1.5;;;;;;;8.15;76.55273;946.3454;;;;
2023/02/18 00:23:15;;;;;;;1.2;1;;;;;;;8.07;77.37891;946.05;;;;
2023/02/18 00:26:03;;;;;;;2.5;1.4;;;;;;;8.11;77.18066;946.1456;;;;
2023/02/18 00:28:42;;;;;;;1.8;1.2;;;;;;;8.1;77.16895;946.2961;;;;
2023/02/18 00:31:12;;;;;;;1.1;1;;;;;;;8.24;76.30762;946.1939;;;;
2023/02/18 00:33:38;;;;;;;2.3;1.1;;;;;;;8.25;76.40039;946.2456;;;;
2023/02/18 00:36:12;;;;;;;1.2;1;;;;;;;8.37;75.45508;946.2489;;;;
2023/02/18 00:38:39;;;;;;;1.3;1.1;;;;;;;8.39;75.25586;946.3756;;;;
2023/02/18 00:41:09;;;;;;;1.1;0.9;;;;;;;8.32;75.0957;946.2114;;;;
2023/02/18 00:43:37;;;;;;;0.7;0.7;;;;;;;8.27;75.04004;946.2708;;;;
2023/02/18 00:46:02;;;;;;;1.6;0.6;;;;;;;8.25;75.07129;946.2679;;;;
2023/02/18 00:48:27;;;;;;;0.6;0.6;;;;;;;8.31;74.89063;946.1873;;;;
2023/02/18 00:51:00;;;;;;;1.9;0.7;;;;;;;8.28;74.76953;946.2291;;;;
2023/02/18 00:53:25;;;;;;;0.5;0.5;;;;;;;7.91;76.00977;946.2804;;;;
2023/02/18 00:55:50;;;;;;;1.2;0.7;;;;;;;7.75;77.33301;946.2534;;;;
2023/02/18 00:58:18;;;;;;;1;0.8;;;;;;;7.75;77.65039;946.1321;;;;
2023/02/18 01:00:43;;;;;;;1;0.9;;;;;;;7.55;78.44238;946.1516;;;;
2023/02/18 01:03:08;;;;;;;0.9;0.7;;;;;;;7.73;77.74902;946.0974;;;;
2023/02/18 01:05:43;;;;;;;1.1;1;;;;;;;7.74;77.46777;946.1469;;;;
2023/02/18 01:08:09;;;;;;;0.8;0.8;;;;;;;7.71;77.70117;945.9597;;;;
2023/02/18 01:10:34;;;;;;;1.1;0.9;;;;;;;7.64;77.77637;946.0856;;;;
2023/02/18 01:12:59;;;;;;;1.5;0.9;;;;;;;7.63;77.66211;945.9998;;;;
2023/02/18 01:15:35;;;;;;;0.9;0.9;;;;;;;7.65;77.32617;945.9528;;;;
2023/02/18 01:18:03;;;;;;;3.3;2.1;;;;;;;7.57;77.6875;945.9953;;;;
2023/02/18 01:20:28;;;;;;;1.7;1.6;;;;;;;7.55;77.7168;946.0366;;;;
2023/02/18 01:22:53;;;;;;;1.6;1.5;;;;;;;7.58;77.47168;945.8519;;;;
2023/02/18 01:26:05;;;;;;;1.3;1.2;;;;;;;7.57;77.52832;945.9366;;;;
2023/02/18 01:28:30;;;;;;;2.7;1.7;;;;;;;7.5;77.82031;945.8225;;;;
2023/02/18 01:30:57;;;;;;;2.1;1.3;;;;;;;7.34;79.03906;945.8494;;;;
2023/02/18 01:33:22;;;;;;;1.8;1.2;;;;;;;7.33;78.80957;945.7595;;;;
2023/02/18 01:35:47;;;;;;;1.2;0.9;;;;;;;7.33;79.5459;945.6297;;;;
2023/02/18 01:38:14;;;;;;;1.5;0.8;;;;;;;7.39;79.3418;945.668;;;;
2023/02/18 01:40:39;;;;;;;2.2;0.7;;;;;;;7.48;78.71289;945.6103;;;;
2023/02/18 01:43:04;;;;;;;0.9;0.8;;;;;;;7.5;78.11523;945.7336;;;;
2023/02/18 01:45:36;;;;;;;1.2;0.8;;;;;;;7.5;78.12598;945.6917;;;;
2023/02/18 01:48:08;;;;;;;0.6;0.6;;;;;;;7.59;78.22363;945.5965;;;;
2023/02/18 01:50:35;;;;;;;1.5;1.1;;;;;;;7.32;78.41211;945.5906;;;;
2023/02/18 01:53:00;;;;;;;1.6;1.5;;;;;;;7.35;78.31348;945.5865;;;;
2023/02/18 01:58:03;;;;;;;1;1;;;;;;;7.22;78.55176;945.5972;;;;
2023/02/18 02:00:35;;;;;;;1.1;1;;;;;;;7.22;78.37012;945.5435;;;;
2023/02/18 02:03:41;;;;;;;1.1;1;;;;;;;6.92;79.93457;945.6166;;;;
2023/02/18 02:06:11;;;;;;;2.1;1.1;;;;;;;6.93;80.48926;945.5408;;;;
2023/02/18 02:08:36;;;;;;;1.2;0.9;;;;;;;6.87;80.55859;945.5151;;;;
2023/02/18 02:11:01;;;;;;;1.3;1.2;;;;;;;6.85;80.18359;945.5589;;;;
2023/02/18 02:13:27;;;;;;;1.6;1.1;;;;;;;6.91;79.66113;945.5988;;;;
2023/02/18 02:15:52;;;;;;;1.7;1.2;;;;;;;6.92;79.36719;945.5214;;;;
2023/02/18 02:18:18;;;;;;;0.7;0.7;;;;;;;6.92;79.79883;945.532;;;;
2023/02/18 02:20:43;;;;;;;2.2;0.8;;;;;;;6.88;80.03027;945.4268;;;;
2023/02/18 02:23:08;;;;;;;1.6;0.9;;;;;;;6.84;80.12305;945.4222;;;;
2023/02/18 02:25:33;;;;;;;1.1;1;;;;;;;6.72;80.75586;945.4153;;;;
2023/02/18 02:27:59;;;;;;;2.4;1.3;;;;;;;6.38;82.29883;945.4785;;;;
2023/02/18 02:30:25;;;;;;;1.2;0.9;;;;;;;6.4;82.87891;945.465;;;;
2023/02/18 02:32:50;;;;;;;1.5;1;;;;;;;6.46;82.19043;945.4637;;;;
2023/02/18 02:35:17;;;;;;;2.4;2.2;;;;;;;6.41;82.38281;945.4902;;;;
2023/02/18 02:41:39;;;;;;;2.4;2;;;;;;;6.46;83.00391;945.48;;;;
2023/02/18 02:44:04;;;;;;;3;1.2;;;;;;;6.21;83.89355;945.2358;;;;
2023/02/18 02:46:30;;;;;;;1.3;1.1;;;;;;;6.13;84.16016;945.4967;;;;
2023/02/18 02:48:58;;;;;;;0.8;0.8;;;;;;;6.25;84.30957;945.3614;;;;
2023/02/18 02:51:23;;;;;;;1.2;1.1;;;;;;;;;;;;;
2023/02/18 02:53:48;;;;;;;3.3;3.1;;;;;;;;;;;;;
2023/02/18 02:56:13;;;;;;;1.6;0.8;;;;;;;;;;;;;
2023/02/18 02:58:39;;;;;;;4.6;4.3;;;;;;;;;;;;;
2023/02/18 03:01:06;;;;;;;3.6;3.3;;;;;;;;;;;;;
2023/02/18 03:03:31;;;;;;;2.5;2.3;;;;;;;;;;;;;
2023/02/18 03:05:58;;;;;;;2.3;2.1;;;;;;;;;;;;;
2023/02/18 03:08:23;;;;;;;1.4;1.3;;;;;;;;;;;;;
2023/02/18 03:10:48;;;;;;;1.4;1.3;;;;;;;;;;;;;
2023/02/18 03:13:13;;;;;;;2.2;1.3;;;;;;;;;;;;;
2023/02/18 03:15:38;;;;;;;1;0.9;;;;;;;;;;;;;
2023/02/18 03:18:04;;;;;;;1.1;1.1;;;;;;;;;;;;;
2023/02/18 03:20:29;;;;;;;2.4;2.3;;;;;;;;;;;;;
2023/02/18 03:22:54;;;;;;;1.6;1.5;;;;;;;;;;;;;
2023/02/18 03:25:19;;;;;;;1.9;1.8;;;;;;;;;;;;;
2023/02/18 03:27:45;;;;;;;1.5;1.4;;;;;;;;;;;;;
2023/02/18 03:30:10;;;;;;;0.8;0.8;;;;;;;;;;;;;
2023/02/18 03:32:37;;;;;;;1.1;0.9;;;;;;;;;;;;;
2023/02/18 03:35:02;;;;;;;2.1;0.9;;;;;;;;;;;;;
2023/02/18 03:37:31;;;;;;;1.2;0.9;;;;;;;;;;;;;
2023/02/18 03:39:55;;;;;;;1.9;1;;;;;;;;;;;;;
2023/02/18 03:42:21;;;;;;;1.6;1.3;;;;;;;;;;;;;
2023/02/18 03:44:46;;;;;;;1.3;1;;;;;;;;;;;;;
2023/02/18 03:47:14;;;;;;;1.6;1.2;;;;;;;;;;;;;
2023/02/18 03:49:39;;;;;;;1.2;1;;;;;;;;;;;;;
2023/02/18 03:52:04;;;;;;;1;0.9;;;;;;;;;;;;;
2023/02/18 03:54:29;;;;;;;1.2;0.9;;;;;;;;;;;;;
2023/02/18 03:56:55;;;;;;;1.7;1;;;;;;;;;;;;;
2023/02/18 03:59:20;;;;;;;1.9;1.2;;;;;;;;;;;;;
2023/02/18 04:02:40;;;;;;;1.2;0.8;;;;;;;5.76;84.69727;945.228;;;;
2023/02/18 04:06:19;;;;;;;1.8;0.9;;;;;;;5.87;84.41504;945.1448;;;;
2023/02/18 04:08:57;;;;;;;1.5;1;;;;;;;5.83;84.86914;945.1978;;;;
2023/02/18 04:11:28;;;;;;;1;0.9;;;;;;;5.95;83.59375;945.1859;;;;
2023/02/18 04:14:00;;;;;;;2.5;1.9;;;;;;;5.88;83.64941;945.1475;;;;
2023/02/18 04:16:25;;;;;;;1.1;1;;;;;;;5.87;83.625;945.1852;;;;
2023/02/18 04:18:57;;;;;;;0.8;0.8;;;;;;;5.81;84.22266;945.1955;;;;
2023/02/18 04:22:06;;;;;;;0.6;0.6;;;;;;;5.84;83.88867;945.2653;;;;
2023/02/18 04:24:37;;;;;;;1.2;0.7;;;;;;;5.83;83.02832;945.1898;;;;
2023/02/18 04:27:04;;;;;;;0.9;0.9;;;;;;;5.83;82.78027;945.2191;;;;
2023/02/18 04:29:32;;;;;;;0.8;0.8;;;;;;;5.62;84.35449;945.2319;;;;
2023/02/18 04:31:57;;;;;;;1.8;0.8;;;;;;;;;;;;;
2023/02/18 04:34:22;;;;;;;1.3;1;;;;;;;;;;;;;
2023/02/18 04:36:47;;;;;;;1.6;1.2;;;;;;;;;;;;;
2023/02/18 04:39:12;;;;;;;4.3;2.8;;;;;;;;;;;;;
2023/02/18 04:41:38;;;;;;;5.4;3.6;;;;;;;;;;;;;
2023/02/18 04:44:05;;;;;;;6.1;4;;;;;;;;;;;;;
2023/02/18 04:46:30;;;;;;;6.5;3.7;;;;;;;;;;;;;
2023/02/18 04:48:56;;;;;;;5;3.1;;;;;;;;;;;;;
2023/02/18 04:51:21;;;;;;;4.6;3.2;;;;;;;;;;;;;
2023/02/18 04:53:47;;;;;;;5.5;3.4;;;;;;;;;;;;;
2023/02/18 04:56:13;;;;;;;5.2;3.2;;;;;;;;;;;;;
2023/02/18 04:58:38;;;;;;;3.8;2.6;;;;;;;;;;;;;
2023/02/18 05:01:03;;;;;;;5.8;3.5;;;;;;;;;;;;;
2023/02/18 05:03:29;;;;;;;5.9;3.8;;;;;;;;;;;;;
2023/02/18 05:05:54;;;;;;;7.6;4.9;;;;;;;;;;;;;
2023/02/18 05:08:20;;;;;;;11.4;6.9;;;;;;;;;;;;;
2023/02/18 05:10:45;;;;;;;8.4;5.3;;;;;;;;;;;;;
2023/02/18 05:13:14;;;;;;;8.8;5.4;;;;;;;;;;;;;
2023/02/18 05:15:39;;;;;;;9;5.5;;;;;;;;;;;;;
2023/02/18 05:18:06;;;;;;;9.9;5.8;;;;;;;;;;;;;
2023/02/18 05:20:31;;;;;;;9.8;5.8;;;;;;;;;;;;;
2023/02/18 05:22:56;;;;;;;10.5;5.8;;;;;;;;;;;;;
2023/02/18 05:25:21;;;;;;;10.9;5.9;;;;;;;;;;;;;
2023/02/18 05:27:48;;;;;;;10.2;6.3;;;;;;;;;;;;;
2023/02/18 05:32:38;;;;;;;11.7;6.2;;;;;;;;;;;;;
2023/02/18 05:35:03;;;;;;;12.3;7.4;;;;;;;;;;;;;
2023/02/18 05:37:29;;;;;;;13.2;7.1;;;;;;;;;;;;;
2023/02/18 05:39:54;;;;;;;11.2;6.1;;;;;;;;;;;;;
2023/02/18 05:42:20;;;;;;;10.6;6.2;;;;;;;;;;;;;
2023/02/18 05:44:45;;;;;;;11;6.3;;;;;;;;;;;;;
2023/02/18 05:47:11;;;;;;;13.1;6.9;;;;;;;;;;;;;
2023/02/18 05:49:37;;;;;;;10.1;5.5;;;;;;;;;;;;;
2023/02/18 05:52:02;;;;;;;8.3;4.6;;;;;;;;;;;;;
2023/02/18 05:54:28;;;;;;;8.5;4.4;;;;;;;;;;;;;
2023/02/18 05:56:53;;;;;;;8.8;4.8;;;;;;;;;;;;;
2023/02/18 05:59:18;;;;;;;6.9;4.9;;;;;;;;;;;;;
2023/02/18 06:01:44;;;;;;;8.9;5.5;;;;;;;;;;;;;
2023/02/18 06:04:09;;;;;;;10.4;6.8;;;;;;;;;;;;;
2023/02/18 06:06:36;;;;;;;8;4.7;;;;;;;;;;;;;
2023/02/18 06:09:01;;;;;;;9.4;7;;;;;;;;;;;;;
2023/02/18 06:11:26;;;;;;;5.7;3.9;;;;;;;;;;;;;
2023/02/18 06:13:53;;;;;;;10;5.9;;;;;;;;;;;;;
2023/02/18 06:16:18;;;;;;;10.4;6;;;;;;;;;;;;;
2023/02/18 06:18:44;;;;;;;10.4;6.6;;;;;;;;;;;;;
2023/02/18 06:21:09;;;;;;;6.9;4.5;;;;;;;;;;;;;
2023/02/18 06:23:35;;;;;;;10.9;6.9;;;;;;;;;;;;;
2023/02/18 06:26:00;;;;;;;6.3;4.7;;;;;;;;;;;;;
2023/02/18 06:28:28;;;;;;;8.1;5.7;;;;;;;;;;;;;
2023/02/18 06:30:53;;;;;;;9.2;5.7;;;;;;;;;;;;;
2023/02/18 06:33:20;;;;;;;8.7;5.7;;;;;;;;;;;;;
2023/02/18 06:35:45;;;;;;;9.2;6.4;;;;;;;;;;;;;
2023/02/18 06:38:11;;;;;;;14.7;8.9;;;;;;;;;;;;;
2023/02/18 06:40:36;;;;;;;18.8;11.3;;;;;;;;;;;;;
2023/02/18 06:43:01;;;;;;;13.6;8.3;;;;;;;;;;;;;
2023/02/18 06:45:26;;;;;;;15.2;10.3;;;;;;;;;;;;;
2023/02/18 06:47:52;;;;;;;11;7.5;;;;;;;;;;;;;
2023/02/18 06:50:18;;;;;;;8.6;5.1;;;;;;;;;;;;;
2023/02/18 06:52:45;;;;;;;6.9;3.9;;;;;;;;;;;;;
2023/02/18 06:55:10;;;;;;;8.7;4;;;;;;;;;;;;;
2023/02/18 06:57:38;;;;;;;11.7;6.7;;;;;;;;;;;;;
2023/02/18 07:00:03;;;;;;;9.9;6.7;;;;;;;;;;;;;
2023/02/18 07:02:30;;;;;;;7.5;5;;;;;;;;;;;;;
2023/02/18 07:04:55;;;;;;;6.4;3.5;;;;;;;;;;;;;
2023/02/18 07:07:20;;;;;;;9;6.7;;;;;;;;;;;;;
2023/02/18 07:09:45;;;;;;;7.7;5.7;;;;;;;;;;;;;
2023/02/18 07:12:11;;;;;;;7.3;4.9;;;;;;;;;;;;;
2023/02/18 07:14:36;;;;;;;6;4.2;;;;;;;;;;;;;
2023/02/18 07:17:05;;;;;;;6.2;3.9;;;;;;;;;;;;;
2023/02/18 07:19:30;;;;;;;5.6;3.3;;;;;;;;;;;;;
2023/02/18 07:21:56;;;;;;;4.3;2.9;;;;;;;;;;;;;
2023/02/18 07:24:21;;;;;;;3.1;2.8;;;;;;;;;;;;;
2023/02/18 07:26:47;;;;;;;4.3;2.3;;;;;;;;;;;;;
2023/02/18 07:29:12;;;;;;;3.1;2.8;;;;;;;;;;;;;
2023/02/18 07:31:38;;;;;;;2.7;2.4;;;;;;;;;;;;;
2023/02/18 07:34:03;;;;;;;2.6;2.2;;;;;;;;;;;;;
2023/02/18 07:36:28;;;;;;;2.5;2;;;;;;;;;;;;;
2023/02/18 07:38:53;;;;;;;2.3;1.7;;;;;;;;;;;;;
2023/02/18 07:41:19;;;;;;;3.4;1.6;;;;;;;;;;;;;
2023/02/18 07:43:45;;;;;;;6.7;6.2;;;;;;;;;;;;;
2023/02/18 07:46:10;;;;;;;2.7;1.9;;;;;;;;;;;;;
2023/02/18 07:48:35;;;;;;;2.3;1.9;;;;;;;;;;;;;
2023/02/18 07:51:02;;;;;;;1.1;1;;;;;;;;;;;;;
2023/02/18 07:53:27;;;;;;;2;1.6;;;;;;;;;;;;;
2023/02/18 07:55:54;;;;;;;3.6;2.1;;;;;;;;;;;;;
2023/02/18 07:58:19;;;;;;;4.4;2.9;;;;;;;;;;;;;
2023/02/18 08:00:46;;;;;;;3.5;2.2;;;;;;;;;;;;;
2023/02/18 08:03:11;;;;;;;3.9;2.4;;;;;;;;;;;;;
2023/02/18 08:05:37;;;;;;;2.9;2.3;;;;;;;;;;;;;
2023/02/18 08:08:02;;;;;;;3.1;2.1;;;;;;;;;;;;;
2023/02/18 08:10:28;;;;;;;3.3;2.2;;;;;;;;;;;;;
2023/02/18 08:12:53;;;;;;;3.5;2.5;;;;;;;;;;;;;
2023/02/18 08:15:20;;;;;;;3.1;2.5;;;;;;;;;;;;;
2023/02/18 08:17:45;;;;;;;2.9;2.3;;;;;;;;;;;;;
2023/02/18 08:20:14;;;;;;;3.6;2.4;;;;;;;;;;;;;
2023/02/18 08:22:42;;;;;;;2.2;1.9;;;;;;;;;;;;;
2023/02/18 08:25:07;;;;;;;1.8;1.7;;;;;;;;;;;;;
2023/02/18 08:27:33;;;;;;;2.3;1.5;;;;;;;;;;;;;
2023/02/18 08:29:59;;;;;;;2;1.4;;;;;;;;;;;;;
2023/02/18 08:32:25;;;;;;;1.3;1.2;;;;;;;;;;;;;
2023/02/18 08:34:50;;;;;;;2.6;1.9;;;;;;;;;;;;;
2023/02/18 08:37:16;;;;;;;3.3;1.9;;;;;;;;;;;;;
2023/02/18 08:39:41;;;;;;;2.8;1.9;;;;;;;;;;;;;
2023/02/18 08:42:07;;;;;;;2.8;2.1;;;;;;;;;;;;;
2023/02/18 08:44:34;;;;;;;2.2;1.7;;;;;;;;;;;;;
2023/02/18 08:47:00;;;;;;;2.2;1.9;;;;;;;;;;;;;
2023/02/18 08:49:25;;;;;;;2.1;1.6;;;;;;;;;;;;;
2023/02/18 08:51:52;;;;;;;2.6;1.9;;;;;;;;;;;;;
2023/02/18 08:54:17;;;;;;;3.3;2.6;;;;;;;;;;;;;
2023/02/18 08:56:43;;;;;;;4;2.4;;;;;;;;;;;;;
2023/02/18 08:59:08;;;;;;;3.4;2.2;;;;;;;;;;;;;
2023/02/18 09:01:35;;;;;;;3.3;2.2;;;;;;;;;;;;;
2023/02/18 09:04:00;;;;;;;2.5;2.2;;;;;;;;;;;;;
2023/02/18 09:06:25;;;;;;;2.8;1.8;;;;;;;;;;;;;
2023/02/18 09:08:50;;;;;;;1.9;1.7;;;;;;;;;;;;;
2023/02/18 09:11:18;;;;;;;1.9;1.4;;;;;;;;;;;;;
2023/02/18 09:13:42;;;;;;;2.8;1.7;;;;;;;;;;;;;
2023/02/18 09:16:07;;;;;;;3.2;2;;;;;;;;;;;;;
2023/02/18 09:18:34;;;;;;;5.1;1.8;;;;;;;;;;;;;
2023/02/18 09:20:58;;;;;;;2.5;1.9;;;;;;;;;;;;;
2023/02/18 09:23:23;;;;;;;3.2;1.9;;;;;;;;;;;;;
2023/02/18 09:25:51;;;;;;;2.8;2.1;;;;;;;;;;;;;
2023/02/18 09:28:16;;;;;;;3;2.1;;;;;;;;;;;;;
2023/02/18 09:30:41;;;;;;;3.5;1.8;;;;;;;;;;;;;
2023/02/18 09:33:06;;;;;;;3.3;2;;;;;;;;;;;;;
2023/02/18 09:35:33;;;;;;;4.9;1.6;;;;;;;;;;;;;
2023/02/18 09:37:58;;;;;;;11.4;2.9;;;;;;;;;;;;;
2023/02/18 09:40:23;;;;;;;5.5;1.6;;;;;;;;;;;;;
2023/02/18 09:42:48;;;;;;;5.9;2.3;;;;;;;;;;;;;
2023/02/18 09:45:16;;;;;;;5.3;2.4;;;;;;;;;;;;;
2023/02/18 09:47:41;;;;;;;2.1;1.7;;;;;;;;;;;;;
2023/02/18 09:50:09;;;;;;;9.7;2.3;;;;;;;;;;;;;
2023/02/18 09:52:35;;;;;;;3.7;1.7;;;;;;;;;;;;;
2023/02/18 09:55:00;;;;;;;3.3;1.6;;;;;;;;;;;;;
2023/02/18 09:57:26;;;;;;;8.7;1.9;;;;;;;;;;;;;
2023/02/18 09:59:51;;;;;;;2.7;1.6;;;;;;;;;;;;;
2023/02/18 10:02:19;;;;;;;2.2;2;;;;;;;;;;;;;
2023/02/18 10:04:43;;;;;;;6.5;2;;;;;;;;;;;;;
2023/02/18 10:07:09;;;;;;;5;1.5;;;;;;;;;;;;;
2023/02/18 10:09:34;;;;;;;2.2;1.6;;;;;;;;;;;;;
2023/02/18 10:11:59;;;;;;;2.7;1.4;;;;;;;;;;;;;
2023/02/18 10:14:25;;;;;;;1.5;1.3;;;;;;;;;;;;;
2023/02/18 10:16:53;;;;;;;1.3;1.2;;;;;;;;;;;;;
2023/02/18 10:19:18;;;;;;;1.3;1;;;;;;;;;;;;;
2023/02/18 10:21:44;;;;;;;1.1;1;;;;;;;;;;;;;
2023/02/18 10:24:09;;;;;;;1.1;1;;;;;;;;;;;;;
2023/02/18 10:26:34;;;;;;;3.5;0.9;;;;;;;;;;;;;
2023/02/18 10:28:59;;;;;;;1.6;1;;;;;;;;;;;;;
2023/02/18 10:31:25;;;;;;;1.8;1.1;;;;;;;;;;;;;
2023/02/18 10:33:50;;;;;;;1.9;1;;;;;;;;;;;;;
2023/02/18 10:36:15;;;;;;;3.1;1.2;;;;;;;;;;;;;
2023/02/18 10:38:40;;;;;;;1.1;1;;;;;;;;;;;;;
2023/02/18 10:41:06;;;;;;;2.5;1.1;;;;;;;;;;;;;
2023/02/18 10:43:31;;;;;;;1.6;1;;;;;;;;;;;;;
2023/02/18 10:45:56;;;;;;;1.7;1.1;;;;;;;;;;;;;
2023/02/18 10:48:22;;;;;;;2.9;1.3;;;;;;;;;;;;;
2023/02/18 10:50:47;;;;;;;1.7;1.2;;;;;;;;;;;;;
2023/02/18 10:53:13;;;;;;;1.5;1.2;;;;;;;;;;;;;
2023/02/18 10:55:38;;;;;;;1.8;1.3;;;;;;;;;;;;;
2023/02/18 10:58:04;;;;;;;1.8;1.2;;;;;;;;;;;;;
2023/02/18 11:00:31;;;;;;;2.6;1.1;;;;;;;;;;;;;
2023/02/18 11:02:56;;;;;;;1.9;1.3;;;;;;;;;;;;;
2023/02/18 11:05:22;;;;;;;4.4;1.3;;;;;;;;;;;;;
2023/02/18 11:07:47;;;;;;;1.5;1.2;;;;;;;;;;;;;
2023/02/18 11:10:16;;;;;;;3.9;2.1;;;;;;;;;;;;;
2023/02/18 11:12:41;;;;;;;3.1;2.2;;;;;;;;;;;;;
2023/02/18 11:15:08;;;;;;;3.5;2;;;;;;;;;;;;;
2023/02/18 11:17:36;;;;;;;3.8;2.2;;;;;;;;;;;;;
2023/02/18 11:20:00;;;;;;;2.3;1.1;;;;;;;;;;;;;
2023/02/18 11:22:24;;;;;;;3.4;1.3;;;;;;;;;;;;;
2023/02/18 11:24:49;;;;;;;6.9;1.6;;;;;;;;;;;;;
2023/02/18 11:27:14;;;;;;;7.3;1.3;;;;;;;;;;;;;
2023/02/18 11:29:39;;;;;;;2.9;1.1;;;;;;;;;;;;;
2023/02/18 11:32:04;;;;;;;3.9;1.6;;;;;;;;;;;;;
2023/02/18 11:34:32;;;;;;;4.2;1.2;;;;;;;;;;;;;
2023/02/18 11:36:57;;;;;;;2.1;1.2;;;;;;;;;;;;;
2023/02/18 11:39:23;;;;;;;3.2;1.4;;;;;;;;;;;;;
2023/02/18 11:41:48;;;;;;;4.7;1.3;;;;;;;;;;;;;
2023/02/18 11:44:15;;;;;;;2.9;1.1;;;;;;;;;;;;;
2023/02/18 11:46:39;;;;;;;4.4;1.1;;;;;;;;;;;;;
2023/02/18 11:49:04;;;;;;;1.3;0.6;;;;;;;;;;;;;
2023/02/18 11:51:29;;;;;;;0.3;0.2;;;;;;;;;;;;;
2023/02/18 11:53:54;;;;;;;0.2;0.2;;;;;;;;;;;;;
2023/02/18 11:56:21;;;;;;;0.4;0.2;;;;;;;;;;;;;
2023/02/18 11:58:48;;;;;;;1;0.3;;;;;;;;;;;;;
2023/02/18 12:01:13;;;;;;;0.2;0.1;;;;;;;;;;;;;
2023/02/18 12:03:39;;;;;;;0.4;0.4;;;;;;;;;;;;;
2023/02/18 12:06:04;;;;;;;0.2;0.1;;;;;;;;;;;;;
2023/02/18 12:08:29;;;;;;;0.3;0.2;;;;;;;;;;;;;
2023/02/18 12:10:54;;;;;;;0.7;0.6;;;;;;;;;;;;;
2023/02/18 12:13:19;;;;;;;1;0.7;;;;;;;;;;;;;
2023/02/18 12:15:48;;;;;;;0.1;0.1;;;;;;;;;;;;;
2023/02/18 12:18:15;;;;;;;0.2;0.2;;;;;;;;;;;;;
2023/02/18 12:20:38;;;;;;;0.4;0.3;;;;;;;;;;;;;
2023/02/18 12:23:03;;;;;;;1;0.3;;;;;;;;;;;;;
2023/02/18 12:25:29;;;;;;;2.9;1.1;;;;;;;;;;;;;
2023/02/18 12:27:54;;;;;;;0.2;0.2;;;;;;;;;;;;;
2023/02/18 12:30:19;;;;;;;0.4;0.2;;;;;;;;;;;;;
2023/02/18 12:32:44;;;;;;;0.5;0.2;;;;;;;;;;;;;
2023/02/18 12:35:09;;;;;;;0.4;0.2;;;;;;;;;;;;;
2023/02/18 12:37:34;;;;;;;0.4;0.2;;;;;;;;;;;;;
2023/02/18 12:40:00;;;;;;;0.5;0.2;;;;;;;;;;;;;
2023/02/18 12:42:25;;;;;;;0.2;0.2;;;;;;;;;;;;;
2023/02/18 12:44:50;;;;;;;0.3;0.3;;;;;;;;;;;;;
2023/02/18 12:47:17;;;;;;;0.2;0.2;;;;;;;;;;;;;
2023/02/18 12:49:42;;;;;;;1.5;0.2;;;;;;;;;;;;;
2023/02/18 12:52:07;;;;;;;0.2;0.2;;;;;;;;;;;;;
2023/02/18 12:54:32;;;;;;;0.2;0.2;;;;;;;;;;;;;
2023/02/18 12:56:59;;;;;;;0.3;0.3;;;;;;;;;;;;;
2023/02/18 12:59:24;;;;;;;0.4;0.3;;;;;;;;;;;;;
2023/02/18 13:01:50;;;;;;;1;0.5;;;;;;;;;;;;;
2023/02/18 13:04:16;;;;;;;0.6;0.3;;;;;;;;;;;;;
2023/02/18 13:06:40;;;;;;;0.3;0.2;;;;;;;;;;;;;
2023/02/18 13:09:05;;;;;;;0.1;0.1;;;;;;;;;;;;;
2023/02/18 13:11:30;;;;;;;0.5;0.2;;;;;;;;;;;;;
2023/02/18 13:13:55;;;;;;;0.1;0.1;;;;;;;;;;;;;
2023/02/18 13:16:23;;;;;;;3.1;0.4;;;;;;;;;;;;;
2023/02/18 13:18:48;;;;;;;0.2;0.2;;;;;;;;;;;;;
2023/02/18 13:21:15;;;;;;;0.1;0.1;;;;;;;;;;;;;
2023/02/18 13:23:41;;;;;;;1.9;0.3;;;;;;;;;;;;;
2023/02/18 13:26:06;;;;;;;0.6;0.3;;;;;;;;;;;;;
2023/02/18 13:28:31;;;;;;;0.3;0.1;;;;;;;;;;;;;
2023/02/18 13:30:58;;;;;;;0.2;0.2;;;;;;;;;;;;;
2023/02/18 13:33:23;;;;;;;0.2;0.2;;;;;;;;;;;;;
2023/02/18 13:35:48;;;;;;;0.2;0.2;;;;;;;;;;;;;
2023/02/18 13:38:13;;;;;;;0.2;0.2;;;;;;;;;;;;;
2023/02/18 13:40:39;;;;;;;0.1;0.1;;;;;;;;;;;;;
2023/02/18 13:43:04;;;;;;;0.3;0.2;;;;;;;;;;;;;
2023/02/18 13:45:29;;;;;;;0.3;0.2;;;;;;;;;;;;;
2023/02/18 13:47:54;;;;;;;0.1;0.1;;;;;;;;;;;;;
2023/02/18 13:50:22;;;;;;;0.6;0.3;;;;;;;;;;;;;
2023/02/18 13:52:47;;;;;;;1.4;0.2;;;;;;;;;;;;;
2023/02/18 13:55:12;;;;;;;0.6;0.6;;;;;;;;;;;;;
2023/02/18 13:57:37;;;;;;;1.1;0.4;;;;;;;;;;;;;
2023/02/18 14:00:02;;;;;;;0.3;0.3;;;;;;;;;;;;;
2023/02/18 14:02:27;;;;;;;0.7;0.7;;;;;;;;;;;;;
2023/02/18 14:04:53;;;;;;;4.1;0.9;;;;;;;;;;;;;
2023/02/18 14:07:18;;;;;;;1.4;0.3;;;;;;;;;;;;;
2023/02/18 14:09:45;;;;;;;17.3;9;;;;;;;;;;;;;
2023/02/18 14:12:10;;;;;;;2.3;1.2;;;;;;;;;;;;;
2023/02/18 14:14:36;;;;;;;3.8;2.7;;;;;;;;;;;;;
2023/02/18 14:17:02;;;;;;;2.9;1.8;;;;;;;;;;;;;
2023/02/18 14:19:27;;;;;;;5.9;4;;;;;;;;;;;;;
2023/02/18 14:21:52;;;;;;;0.2;0.2;;;;;;;;;;;;;
2023/02/18 14:24:17;;;;;;;0.2;0.2;;;;;;;;;;;;;
2023/02/18 14:26:43;;;;;;;0.5;0.5;;;;;;;;;;;;;
2023/02/18 14:29:10;;;;;;;1.5;1.4;;;;;;;;;;;;;
2023/02/18 14:31:35;;;;;;;1.4;0.7;;;;;;;;;;;;;
2023/02/18 14:34:00;;;;;;;1.5;1.4;;;;;;;;;;;;;
2023/02/18 14:36:25;;;;;;;0.2;0.2;;;;;;;;;;;;;
2023/02/18 14:38:51;;;;;;;0.9;0.5;;;;;;;;;;;;;
2023/02/18 14:41:16;;;;;;;0.2;0.2;;;;;;;;;;;;;
2023/02/18 14:43:41;;;;;;;1.4;0.4;;;;;;;;;;;;;
2023/02/18 14:46:07;;;;;;;0.1;0.1;;;;;;;;;;;;;
2023/02/18 14:48:32;;;;;;;9.8;6.3;;;;;;;;;;;;;
2023/02/18 14:51:00;;;;;;;0.7;0.2;;;;;;;;;;;;;
2023/02/18 14:53:24;;;;;;;0.4;0.3;;;;;;;;;;;;;
2023/02/18 14:55:49;;;;;;;0.4;0.4;;;;;;;;;;;;;
2023/02/18 14:58:15;;;;;;;1.4;0.2;;;;;;;;;;;;;
2023/02/18 15:00:40;;;;;;;0.1;0.1;;;;;;;;;;;;;
2023/02/18 15:03:05;;;;;;;0.5;0.3;;;;;;;;;;;;;
2023/02/18 15:05:33;;;;;;;0.2;0.2;;;;;;;;;;;;;
2023/02/18 15:07:58;;;;;;;0.2;0.2;;;;;;;;;;;;;
2023/02/18 15:10:23;;;;;;;0.2;0.2;;;;;;;;;;;;;
2023/02/18 15:12:50;;;;;;;0.5;0.5;;;;;;;;;;;;;
2023/02/18 15:15:16;;;;;;;0.4;0.4;;;;;;;;;;;;;
2023/02/18 15:17:46;;;;;;;0.2;0.2;;;;;;;;;;;;;
2023/02/18 15:20:11;;;;;;;1;0.6;;;;;;;;;;;;;
2023/02/18 15:22:36;;;;;;;0.7;0.2;;;;;;;;;;;;;
2023/02/18 15:25:03;;;;;;;1.2;0.4;;;;;;;;;;;;;
2023/02/18 15:27:28;;;;;;;0.6;0.3;;;;;;;;;;;;;
2023/02/18 15:29:54;;;;;;;0.4;0.4;;;;;;;;;;;;;
2023/02/18 15:32:19;;;;;;;0.8;0.4;;;;;;;;;;;;;
2023/02/18 15:34:46;;;;;;;3.6;3.4;;;;;;;;;;;;;
2023/02/18 15:37:11;;;;;;;0.4;0.4;;;;;;;;;;;;;
2023/02/18 15:39:37;;;;;;;0.4;0.3;;;;;;;;;;;;;
2023/02/18 15:42:01;;;;;;;0.6;0.5;;;;;;;;;;;;;
2023/02/18 15:44:26;;;;;;;0.6;0.6;;;;;;;;;;;;;
2023/02/18 15:46:53;;;;;;;0.4;0.4;;;;;;;;;;;;;
2023/02/18 15:49:18;;;;;;;0.4;0.4;;;;;;;;;;;;;
2023/02/18 15:51:45;;;;;;;0.7;0.3;;;;;;;;;;;;;
2023/02/18 15:54:10;;;;;;;0.7;0.4;;;;;;;;;;;;;
2023/02/18 15:56:37;;;;;;;0.6;0.5;;;;;;;;;;;;;
2023/02/18 15:59:02;;;;;;;0.6;0.6;;;;;;;;;;;;;
2023/02/18 16:01:28;;;;;;;1.4;0.6;;;;;;;;;;;;;
2023/02/18 16:03:53;;;;;;;0.9;0.5;;;;;;;;;;;;;
2023/02/18 16:06:19;;;;;;;10;1.7;;;;;;;;;;;;;
2023/02/18 16:08:44;;;;;;;6.5;1.4;;;;;;;;;;;;;
2023/02/18 16:11:09;;;;;;;4.3;0.9;;;;;;;;;;;;;
2023/02/18 16:13:34;;;;;;;2.9;0.8;;;;;;;;;;;;;
2023/02/18 16:16:26;;;;;;;3.5;1;;;;;;;;;;;;;
2023/02/18 16:18:53;;;;;;;4.5;2;;;;;;;;;;;;;
2023/02/18 16:21:18;;;;;;;1.2;0.6;;;;;;;;;;;;;
2023/02/18 16:23:44;;;;;;;4.2;1.3;;;;;;;;;;;;;
2023/02/18 16:26:08;;;;;;;6.2;2.1;;;;;;;;;;;;;
2023/02/18 16:28:35;;;;;;;4;3;;;;;;;;;;;;;
2023/02/18 16:31:00;;;;;;;5.5;2.9;;;;;;;;;;;;;
2023/02/18 16:33:26;;;;;;;2.3;0.6;;;;;;;;;;;;;
2023/02/18 16:35:51;;;;;;;0.7;0.7;;;;;;;;;;;;;
2023/02/18 16:38:19;;;;;;;1.8;1.1;;;;;;;;;;;;;
2023/02/18 16:40:44;;;;;;;4.6;2.1;;;;;;;;;;;;;
2023/02/18 16:43:11;;;;;;;3.8;1.8;;;;;;;;;;;;;
2023/02/18 16:45:36;;;;;;;2.8;2.3;;;;;;;;;;;;;
2023/02/18 16:48:01;;;;;;;2.8;2.2;;;;;;;;;;;;;
2023/02/18 16:50:26;;;;;;;4.4;1.1;;;;;;;;;;;;;
2023/02/18 16:52:51;;;;;;;3.4;1.2;;;;;;;;;;;;;
2023/02/18 16:55:17;;;;;;;6.1;1.7;;;;;;;;;;;;;
2023/02/18 16:57:42;;;;;;;2.3;1.6;;;;;;;;;;;;;
2023/02/18 17:00:11;;;;;;;1.5;1.3;;;;;;;;;;;;;
2023/02/18 17:02:36;;;;;;;1.8;1.4;;;;;;;;;;;;;
2023/02/18 17:05:03;;;;;;;1.5;1;;;;;;;;;;;;;
2023/02/18 17:07:31;;;;;;;1;0.9;;;;;;;;;;;;;
2023/02/18 17:09:53;;;;;;;2.6;1.5;;;;;;;;;;;;;
2023/02/18 17:12:18;;;;;;;3;1.4;;;;;;;;;;;;;
2023/02/18 17:14:45;;;;;;;2.9;1.6;;;;;;;;;;;;;
2023/02/18 17:17:13;;;;;;;1.4;1;;;;;;;;;;;;;
2023/02/18 17:19:37;;;;;;;1.3;1.2;;;;;;;;;;;;;
2023/02/18 17:22:02;;;;;;;1.6;1.2;;;;;;;;;;;;;
2023/02/18 17:24:28;;;;;;;1.2;0.8;;;;;;;;;;;;;
2023/02/18 17:26:53;;;;;;;2.8;1.2;;;;;;;;;;;;;
2023/02/18 17:29:19;;;;;;;3.4;2.4;;;;;;;;;;;;;
2023/02/18 17:31:45;;;;;;;4.1;2;;;;;;;;;;;;;
2023/02/18 17:34:11;;;;;;;3;1.5;;;;;;;;;;;;;
2023/02/18 17:36:36;;;;;;;5.3;1.4;;;;;;;;;;;;;
2023/02/18 17:39:01;;;;;;;1.5;1.2;;;;;;;;;;;;;
2023/02/18 17:41:27;;;;;;;3.2;1.3;;;;;;;;;;;;;
2023/02/18 17:43:52;;;;;;;2.3;1.2;;;;;;;;;;;;;
2023/02/18 17:46:19;;;;;;;1.9;1.2;;;;;;;;;;;;;
2023/02/18 17:48:44;;;;;;;1.4;1.3;;;;;;;;;;;;;
2023/02/18 17:51:09;;;;;;;1.6;1;;;;;;;;;;;;;
2023/02/18 17:53:34;;;;;;;3.5;2;;;;;;;;;;;;;
2023/02/18 17:56:00;;;;;;;2.3;1.5;;;;;;;;;;;;;
2023/02/18 17:58:26;;;;;;;2.8;1.4;;;;;;;;;;;;;
2023/02/18 18:00:51;;;;;;;2.1;1.2;;;;;;;;;;;;;
2023/02/18 18:03:18;;;;;;;2.7;1.3;;;;;;;;;;;;;
2023/02/18 18:05:44;;;;;;;1.5;1.2;;;;;;;;;;;;;
2023/02/18 18:08:09;;;;;;;2.2;1.3;;;;;;;;;;;;;
2023/02/18 18:10:34;;;;;;;2.3;1.3;;;;;;;;;;;;;
2023/02/18 18:13:31;;;;;;;2.9;1.2;;;;;;;;;;;;;
2023/02/18 18:15:58;;;;;;;2;1.5;;;;;;;;;;;;;
2023/02/18 18:18:23;;;;;;;1.5;1.3;;;;;;;;;;;;;
2023/02/18 18:20:50;;;;;;;1.7;1.6;;;;;;;;;;;;;
2023/02/18 18:23:15;;;;;;;3;1.5;;;;;;;;;;;;;
2023/02/18 18:25:43;;;;;;;3.2;1.9;;;;;;;;;;;;;
2023/02/18 18:28:09;;;;;;;2.3;1.7;;;;;;;;;;;;;
2023/02/18 18:30:35;;;;;;;1.6;1.4;;;;;;;;;;;;;
2023/02/18 18:33:01;;;;;;;2;1.5;;;;;;;;;;;;;
2023/02/18 18:35:25;;;;;;;2;1.6;;;;;;;;;;;;;
2023/02/18 18:37:51;;;;;;;1.5;1.3;;;;;;;;;;;;;
2023/02/18 18:40:16;;;;;;;3.3;1.9;;;;;;;;;;;;;
2023/02/18 18:42:45;;;;;;;1.9;1.6;;;;;;;;;;;;;
2023/02/18 18:45:13;;;;;;;2.8;1.8;;;;;;;;;;;;;
2023/02/18 18:47:38;;;;;;;2.5;1.6;;;;;;;;;;;;;
2023/02/18 18:50:05;;;;;;;3.2;1.9;;;;;;;;;;;;;
2023/02/18 18:52:30;;;;;;;2.7;1.6;;;;;;;;;;;;;
2023/02/18 18:54:56;;;;;;;2.1;1.8;;;;;;;;;;;;;
2023/02/18 18:57:21;;;;;;;1.9;1.6;;;;;;;;;;;;;
2023/02/18 18:59:48;;;;;;;2.7;1.8;;;;;;;;;;;;;
2023/02/18 19:02:13;;;;;;;2.8;1.7;;;;;;;;;;;;;
2023/02/18 19:04:38;;;;;;;1.9;1.5;;;;;;;;;;;;;
2023/02/18 19:07:05;;;;;;;2.8;1.9;;;;;;;;;;;;;
2023/02/18 19:09:29;;;;;;;2.6;1.8;;;;;;;;;;;;;
2023/02/18 19:11:56;;;;;;;3.2;2.1;;;;;;;;;;;;;
2023/02/18 19:14:21;;;;;;;3.6;2.4;;;;;;;;;;;;;
2023/02/18 19:16:50;;;;;;;3.6;2.4;;;;;;;;;;;;;
2023/02/18 19:19:15;;;;;;;4.9;3.4;;;;;;;;;;;;;
2023/02/18 19:21:51;;;;;;;8.3;4.6;;;;;;;;;;;;;
2023/02/18 19:24:18;;;;;;;8.7;4.8;;;;;;;;;;;;;
2023/02/18 19:26:43;;;;;;;5.7;3.8;;;;;;;;;;;;;
2023/02/18 19:29:08;;;;;;;6.3;4.4;;;;;;;;;;;;;
2023/02/18 19:31:34;;;;;;;7.3;4.6;;;;;;;;;;;;;
2023/02/18 19:34:00;;;;;;;10.2;5.6;;;;;;;;;;;;;
2023/02/18 19:36:25;;;;;;;10.1;4.6;;;;;;;;;;;;;
2023/02/18 19:38:53;;;;;;;6.7;4.2;;;;;;;;;;;;;